sensor_id;sensor_type;location;lat;lon;timestamp;P1;durP1;ratioP1;P2;durP2;ratioP2
13321;SDS011;6730;46.248;6.930;2023-04-24T00:02:18;2.90;;;1.02;;
13321;SDS011;6730;46.248;6.930;2023-04-24T00:04:44;0.85;;;0.85;;
13321;SDS011;6730;46.248;6.930;2023-04-24T00:07:10;3.42;;;3.13;;
13321;SDS011;6730;46.248;6.930;2023-04-24T00:09:36;2.17;;;1.05;;
13321;SDS011;6730;46.248;6.930;2023-04-24T00:12:02;4.15;;;3.28;;
13321;SDS011;6730;46.248;6.930;2023-04-24T00:14:31;4.95;;;3.63;;
13321;SDS011;6730;46.248;6.930;2023-04-24T00:16:56;2.20;;;1.50;;
13321;SDS011;6730;46.248;6.930;2023-04-24T00:19:22;1.50;;;1.40;;
13321;SDS011;6730;46.248;6.930;2023-04-24T00:21:48;2.53;;;1.60;;
13321;SDS011;6730;46.248;6.930;2023-04-24T00:24:16;1.83;;;1.58;;
13321;SDS011;6730;46.248;6.930;2023-04-24T00:26:43;1.88;;;1.10;;
13321;SDS011;6730;46.248;6.930;2023-04-24T00:29:08;1.40;;;1.20;;
13321;SDS011;6730;46.248;6.930;2023-04-24T00:31:34;1.90;;;1.02;;
13321;SDS011;6730;46.248;6.930;2023-04-24T00:34:00;1.48;;;1.13;;
13321;SDS011;6730;46.248;6.930;2023-04-24T00:36:27;1.00;;;0.90;;
13321;SDS011;6730;46.248;6.930;2023-04-24T00:38:53;1.05;;;0.70;;
13321;SDS011;6730;46.248;6.930;2023-04-24T00:41:19;1.17;;;0.90;;
13321;SDS011;6730;46.248;6.930;2023-04-24T00:43:46;2.85;;;1.30;;
13321;SDS011;6730;46.248;6.930;2023-04-24T00:46:12;1.20;;;1.10;;
13321;SDS011;6730;46.248;6.930;2023-04-24T00:48:38;1.63;;;0.82;;
13321;SDS011;6730;46.248;6.930;2023-04-24T00:51:05;0.82;;;0.80;;
13321;SDS011;6730;46.248;6.930;2023-04-24T00:53:30;0.90;;;0.80;;
13321;SDS011;6730;46.248;6.930;2023-04-24T00:55:56;0.75;;;0.73;;
13321;SDS011;6730;46.248;6.930;2023-04-24T00:58:23;0.93;;;0.90;;
13321;SDS011;6730;46.248;6.930;2023-04-24T01:00:49;0.68;;;0.68;;
13321;SDS011;6730;46.248;6.930;2023-04-24T01:03:18;0.75;;;0.60;;
13321;SDS011;6730;46.248;6.930;2023-04-24T01:05:49;0.60;;;0.60;;
13321;SDS011;6730;46.248;6.930;2023-04-24T01:08:15;0.63;;;0.63;;
13321;SDS011;6730;46.248;6.930;2023-04-24T01:10:41;0.60;;;0.60;;
13321;SDS011;6730;46.248;6.930;2023-04-24T01:13:09;2.35;;;0.60;;
13321;SDS011;6730;46.248;6.930;2023-04-24T01:15:35;0.70;;;0.70;;
13321;SDS011;6730;46.248;6.930;2023-04-24T01:18:01;0.63;;;0.63;;
13321;SDS011;6730;46.248;6.930;2023-04-24T01:20:27;1.02;;;0.95;;
13321;SDS011;6730;46.248;6.930;2023-04-24T01:22:55;0.77;;;0.70;;
13321;SDS011;6730;46.248;6.930;2023-04-24T01:25:24;0.73;;;0.73;;
13321;SDS011;6730;46.248;6.930;2023-04-24T01:27:52;0.60;;;0.60;;
13321;SDS011;6730;46.248;6.930;2023-04-24T01:30:18;0.77;;;0.65;;
13321;SDS011;6730;46.248;6.930;2023-04-24T01:32:43;1.27;;;0.80;;
13321;SDS011;6730;46.248;6.930;2023-04-24T01:35:10;0.60;;;0.60;;
13321;SDS011;6730;46.248;6.930;2023-04-24T01:37:36;0.60;;;0.60;;
13321;SDS011;6730;46.248;6.930;2023-04-24T01:40:05;0.70;;;0.50;;
13321;SDS011;6730;46.248;6.930;2023-04-24T01:42:32;0.60;;;0.60;;
13321;SDS011;6730;46.248;6.930;2023-04-24T01:44:58;0.60;;;0.60;;
13321;SDS011;6730;46.248;6.930;2023-04-24T01:47:24;1.20;;;0.40;;
13321;SDS011;6730;46.248;6.930;2023-04-24T01:49:51;0.68;;;0.60;;
13321;SDS011;6730;46.248;6.930;2023-04-24T01:52:17;0.50;;;0.50;;
13321;SDS011;6730;46.248;6.930;2023-04-24T01:54:43;0.50;;;0.50;;
13321;SDS011;6730;46.248;6.930;2023-04-24T01:57:09;0.50;;;0.50;;
13321;SDS011;6730;46.248;6.930;2023-04-24T01:59:35;0.60;;;0.60;;
13321;SDS011;6730;46.248;6.930;2023-04-24T02:02:04;1.23;;;0.70;;
13321;SDS011;6730;46.248;6.930;2023-04-24T02:04:30;0.60;;;0.60;;
13321;SDS011;6730;46.248;6.930;2023-04-24T02:06:56;1.83;;;0.73;;
13321;SDS011;6730;46.248;6.930;2023-04-24T02:09:22;0.40;;;0.40;;
13321;SDS011;6730;46.248;6.930;2023-04-24T02:11:48;0.57;;;0.57;;
13321;SDS011;6730;46.248;6.930;2023-04-24T02:14:13;2.20;;;0.80;;
13321;SDS011;6730;46.248;6.930;2023-04-24T02:16:39;1.10;;;1.00;;
13321;SDS011;6730;46.248;6.930;2023-04-24T02:19:04;1.55;;;1.45;;
13321;SDS011;6730;46.248;6.930;2023-04-24T02:21:30;0.68;;;0.68;;
13321;SDS011;6730;46.248;6.930;2023-04-24T02:23:57;1.15;;;0.65;;
13321;SDS011;6730;46.248;6.930;2023-04-24T02:26:22;0.70;;;0.70;;
13321;SDS011;6730;46.248;6.930;2023-04-24T02:28:48;0.93;;;0.80;;
13321;SDS011;6730;46.248;6.930;2023-04-24T02:31:14;0.70;;;0.70;;
13321;SDS011;6730;46.248;6.930;2023-04-24T02:33:40;0.57;;;0.50;;
13321;SDS011;6730;46.248;6.930;2023-04-24T02:36:05;0.68;;;0.65;;
13321;SDS011;6730;46.248;6.930;2023-04-24T02:38:31;0.65;;;0.50;;
13321;SDS011;6730;46.248;6.930;2023-04-24T02:40:57;1.50;;;0.55;;
13321;SDS011;6730;46.248;6.930;2023-04-24T02:43:23;3.20;;;0.65;;
13321;SDS011;6730;46.248;6.930;2023-04-24T02:45:48;0.95;;;0.77;;
13321;SDS011;6730;46.248;6.930;2023-04-24T02:48:14;0.50;;;0.50;;
13321;SDS011;6730;46.248;6.930;2023-04-24T02:50:40;0.90;;;0.73;;
13321;SDS011;6730;46.248;6.930;2023-04-24T02:53:06;0.52;;;0.52;;
13321;SDS011;6730;46.248;6.930;2023-04-24T02:55:31;0.50;;;0.50;;
13321;SDS011;6730;46.248;6.930;2023-04-24T02:57:57;0.55;;;0.55;;
13321;SDS011;6730;46.248;6.930;2023-04-24T03:00:23;0.55;;;0.43;;
13321;SDS011;6730;46.248;6.930;2023-04-24T03:02:49;1.58;;;0.60;;
13321;SDS011;6730;46.248;6.930;2023-04-24T03:05:15;0.88;;;0.55;;
13321;SDS011;6730;46.248;6.930;2023-04-24T03:07:40;1.35;;;0.50;;
13321;SDS011;6730;46.248;6.930;2023-04-24T03:10:06;1.05;;;0.70;;
13321;SDS011;6730;46.248;6.930;2023-04-24T03:12:32;0.60;;;0.60;;
13321;SDS011;6730;46.248;6.930;2023-04-24T03:14:58;0.50;;;0.50;;
13321;SDS011;6730;46.248;6.930;2023-04-24T03:17:24;0.40;;;0.40;;
13321;SDS011;6730;46.248;6.930;2023-04-24T03:19:50;0.50;;;0.30;;
13321;SDS011;6730;46.248;6.930;2023-04-24T03:22:15;0.43;;;0.43;;
13321;SDS011;6730;46.248;6.930;2023-04-24T03:24:41;0.38;;;0.38;;
13321;SDS011;6730;46.248;6.930;2023-04-24T03:27:07;0.40;;;0.40;;
13321;SDS011;6730;46.248;6.930;2023-04-24T03:29:32;0.30;;;0.30;;
13321;SDS011;6730;46.248;6.930;2023-04-24T03:31:58;0.30;;;0.30;;
13321;SDS011;6730;46.248;6.930;2023-04-24T03:34:24;0.25;;;0.25;;
13321;SDS011;6730;46.248;6.930;2023-04-24T03:36:49;0.45;;;0.35;;
13321;SDS011;6730;46.248;6.930;2023-04-24T03:39:15;0.32;;;0.30;;
13321;SDS011;6730;46.248;6.930;2023-04-24T03:41:41;0.47;;;0.20;;
13321;SDS011;6730;46.248;6.930;2023-04-24T03:44:06;0.10;;;0.10;;
13321;SDS011;6730;46.248;6.930;2023-04-24T03:46:32;0.25;;;0.25;;
13321;SDS011;6730;46.248;6.930;2023-04-24T03:48:58;0.10;;;0.10;;
13321;SDS011;6730;46.248;6.930;2023-04-24T03:51:23;0.10;;;0.10;;
13321;SDS011;6730;46.248;6.930;2023-04-24T03:53:49;0.45;;;0.40;;
13321;SDS011;6730;46.248;6.930;2023-04-24T03:56:15;1.98;;;0.28;;
13321;SDS011;6730;46.248;6.930;2023-04-24T03:58:40;0.38;;;0.38;;
13321;SDS011;6730;46.248;6.930;2023-04-24T04:01:06;0.65;;;0.40;;
13321;SDS011;6730;46.248;6.930;2023-04-24T04:03:32;0.20;;;0.20;;
13321;SDS011;6730;46.248;6.930;2023-04-24T04:05:58;0.82;;;0.30;;
13321;SDS011;6730;46.248;6.930;2023-04-24T04:08:24;0.10;;;0.10;;
13321;SDS011;6730;46.248;6.930;2023-04-24T04:10:50;0.10;;;0.10;;
13321;SDS011;6730;46.248;6.930;2023-04-24T04:13:15;0.17;;;0.15;;
13321;SDS011;6730;46.248;6.930;2023-04-24T04:15:41;0.52;;;0.20;;
13321;SDS011;6730;46.248;6.930;2023-04-24T04:18:07;0.20;;;0.20;;
13321;SDS011;6730;46.248;6.930;2023-04-24T04:20:33;0.20;;;0.20;;
13321;SDS011;6730;46.248;6.930;2023-04-24T04:22:59;0.43;;;0.20;;
13321;SDS011;6730;46.248;6.930;2023-04-24T04:25:25;0.22;;;0.22;;
13321;SDS011;6730;46.248;6.930;2023-04-24T04:27:51;0.00;;;0.00;;
13321;SDS011;6730;46.248;6.930;2023-04-24T04:30:17;0.20;;;0.20;;
13321;SDS011;6730;46.248;6.930;2023-04-24T04:32:43;0.28;;;0.28;;
13321;SDS011;6730;46.248;6.930;2023-04-24T04:35:09;0.10;;;0.10;;
13321;SDS011;6730;46.248;6.930;2023-04-24T04:37:35;0.20;;;0.10;;
13321;SDS011;6730;46.248;6.930;2023-04-24T04:40:03;0.10;;;0.10;;
13321;SDS011;6730;46.248;6.930;2023-04-24T04:42:32;0.00;;;0.00;;
13321;SDS011;6730;46.248;6.930;2023-04-24T04:45:05;0.13;;;0.13;;
13321;SDS011;6730;46.248;6.930;2023-04-24T04:47:34;0.05;;;0.05;;
13321;SDS011;6730;46.248;6.930;2023-04-24T04:49:59;0.20;;;0.20;;
13321;SDS011;6730;46.248;6.930;2023-04-24T04:52:26;0.00;;;0.00;;
13321;SDS011;6730;46.248;6.930;2023-04-24T04:54:52;0.10;;;0.10;;
13321;SDS011;6730;46.248;6.930;2023-04-24T04:57:18;0.20;;;0.20;;
13321;SDS011;6730;46.248;6.930;2023-04-24T04:59:43;0.40;;;0.40;;
13321;SDS011;6730;46.248;6.930;2023-04-24T05:02:09;0.38;;;0.38;;
13321;SDS011;6730;46.248;6.930;2023-04-24T05:04:35;0.45;;;0.20;;
13321;SDS011;6730;46.248;6.930;2023-04-24T05:07:01;0.52;;;0.30;;
13321;SDS011;6730;46.248;6.930;2023-04-24T05:09:26;0.52;;;0.52;;
13321;SDS011;6730;46.248;6.930;2023-04-24T05:11:54;0.45;;;0.45;;
13321;SDS011;6730;46.248;6.930;2023-04-24T05:14:20;0.50;;;0.50;;
13321;SDS011;6730;46.248;6.930;2023-04-24T05:16:46;0.55;;;0.47;;
13321;SDS011;6730;46.248;6.930;2023-04-24T05:19:12;0.55;;;0.55;;
13321;SDS011;6730;46.248;6.930;2023-04-24T05:21:39;0.52;;;0.52;;
13321;SDS011;6730;46.248;6.930;2023-04-24T05:24:05;1.23;;;0.70;;
13321;SDS011;6730;46.248;6.930;2023-04-24T05:26:32;2.03;;;0.80;;
13321;SDS011;6730;46.248;6.930;2023-04-24T05:28:57;1.10;;;0.80;;
13321;SDS011;6730;46.248;6.930;2023-04-24T05:31:23;0.60;;;0.60;;
13321;SDS011;6730;46.248;6.930;2023-04-24T05:33:49;1.40;;;0.80;;
13321;SDS011;6730;46.248;6.930;2023-04-24T05:36:14;0.70;;;0.70;;
13321;SDS011;6730;46.248;6.930;2023-04-24T05:38:40;1.35;;;0.77;;
13321;SDS011;6730;46.248;6.930;2023-04-24T05:41:05;0.82;;;0.65;;
13321;SDS011;6730;46.248;6.930;2023-04-24T05:43:31;1.63;;;0.70;;
13321;SDS011;6730;46.248;6.930;2023-04-24T05:45:57;0.60;;;0.60;;
13321;SDS011;6730;46.248;6.930;2023-04-24T05:48:22;0.50;;;0.50;;
13321;SDS011;6730;46.248;6.930;2023-04-24T05:50:48;0.65;;;0.65;;
13321;SDS011;6730;46.248;6.930;2023-04-24T05:53:14;0.70;;;0.70;;
13321;SDS011;6730;46.248;6.930;2023-04-24T05:55:40;0.65;;;0.65;;
13321;SDS011;6730;46.248;6.930;2023-04-24T05:58:06;0.52;;;0.52;;
13321;SDS011;6730;46.248;6.930;2023-04-24T06:00:31;0.60;;;0.60;;
13321;SDS011;6730;46.248;6.930;2023-04-24T06:02:59;0.60;;;0.50;;
13321;SDS011;6730;46.248;6.930;2023-04-24T06:05:25;0.88;;;0.88;;
13321;SDS011;6730;46.248;6.930;2023-04-24T06:07:51;1.00;;;0.90;;
13321;SDS011;6730;46.248;6.930;2023-04-24T06:10:16;0.70;;;0.70;;
13321;SDS011;6730;46.248;6.930;2023-04-24T06:12:42;2.65;;;0.70;;
13321;SDS011;6730;46.248;6.930;2023-04-24T06:15:08;2.05;;;0.85;;
13321;SDS011;6730;46.248;6.930;2023-04-24T06:17:34;0.80;;;0.80;;
13321;SDS011;6730;46.248;6.930;2023-04-24T06:19:59;3.45;;;1.02;;
13321;SDS011;6730;46.248;6.930;2023-04-24T06:22:25;0.75;;;0.75;;
13321;SDS011;6730;46.248;6.930;2023-04-24T06:24:51;0.93;;;0.70;;
13321;SDS011;6730;46.248;6.930;2023-04-24T06:27:16;0.47;;;0.47;;
13321;SDS011;6730;46.248;6.930;2023-04-24T06:29:42;0.93;;;0.80;;
13321;SDS011;6730;46.248;6.930;2023-04-24T06:32:08;2.13;;;1.10;;
13321;SDS011;6730;46.248;6.930;2023-04-24T06:34:33;0.20;;;0.20;;
13321;SDS011;6730;46.248;6.930;2023-04-24T06:37:01;0.50;;;0.50;;
13321;SDS011;6730;46.248;6.930;2023-04-24T06:39:27;0.55;;;0.52;;
13321;SDS011;6730;46.248;6.930;2023-04-24T06:41:53;3.30;;;0.75;;
13321;SDS011;6730;46.248;6.930;2023-04-24T06:44:18;0.70;;;0.65;;
13321;SDS011;6730;46.248;6.930;2023-04-24T06:46:44;0.73;;;0.60;;
13321;SDS011;6730;46.248;6.930;2023-04-24T06:49:10;0.60;;;0.60;;
13321;SDS011;6730;46.248;6.930;2023-04-24T06:51:36;0.45;;;0.45;;
13321;SDS011;6730;46.248;6.930;2023-04-24T06:54:01;0.60;;;0.60;;
13321;SDS011;6730;46.248;6.930;2023-04-24T06:56:27;0.60;;;0.60;;
13321;SDS011;6730;46.248;6.930;2023-04-24T06:58:54;0.40;;;0.40;;
13321;SDS011;6730;46.248;6.930;2023-04-24T07:01:20;0.55;;;0.52;;
13321;SDS011;6730;46.248;6.930;2023-04-24T07:03:45;0.50;;;0.50;;
13321;SDS011;6730;46.248;6.930;2023-04-24T07:06:11;1.27;;;0.80;;
13321;SDS011;6730;46.248;6.930;2023-04-24T07:08:37;1.73;;;1.20;;
13321;SDS011;6730;46.248;6.930;2023-04-24T07:11:03;1.55;;;0.85;;
13321;SDS011;6730;46.248;6.930;2023-04-24T07:13:29;1.02;;;0.70;;
13321;SDS011;6730;46.248;6.930;2023-04-24T07:15:55;6.15;;;0.75;;
13321;SDS011;6730;46.248;6.930;2023-04-24T07:18:21;0.70;;;0.70;;
13321;SDS011;6730;46.248;6.930;2023-04-24T07:20:47;0.93;;;0.90;;
13321;SDS011;6730;46.248;6.930;2023-04-24T07:23:15;1.25;;;1.00;;
13321;SDS011;6730;46.248;6.930;2023-04-24T07:25:41;1.63;;;1.50;;
13321;SDS011;6730;46.248;6.930;2023-04-24T07:28:07;3.20;;;2.90;;
13321;SDS011;6730;46.248;6.930;2023-04-24T07:30:32;1.58;;;1.48;;
13321;SDS011;6730;46.248;6.930;2023-04-24T07:32:58;2.83;;;1.10;;
13321;SDS011;6730;46.248;6.930;2023-04-24T07:35:25;3.63;;;2.33;;
13321;SDS011;6730;46.248;6.930;2023-04-24T07:37:52;1.23;;;0.82;;
13321;SDS011;6730;46.248;6.930;2023-04-24T07:40:18;0.68;;;0.68;;
13321;SDS011;6730;46.248;6.930;2023-04-24T07:42:45;0.80;;;0.80;;
13321;SDS011;6730;46.248;6.930;2023-04-24T07:45:13;1.15;;;0.95;;
13321;SDS011;6730;46.248;6.930;2023-04-24T07:47:39;0.95;;;0.95;;
13321;SDS011;6730;46.248;6.930;2023-04-24T07:50:08;1.13;;;1.02;;
13321;SDS011;6730;46.248;6.930;2023-04-24T07:52:35;1.13;;;1.00;;
13321;SDS011;6730;46.248;6.930;2023-04-24T07:55:01;0.88;;;0.80;;
13321;SDS011;6730;46.248;6.930;2023-04-24T07:57:27;0.68;;;0.68;;
13321;SDS011;6730;46.248;6.930;2023-04-24T07:59:53;0.65;;;0.65;;
13321;SDS011;6730;46.248;6.930;2023-04-24T08:02:19;1.23;;;0.80;;
13321;SDS011;6730;46.248;6.930;2023-04-24T08:04:46;0.70;;;0.60;;
13321;SDS011;6730;46.248;6.930;2023-04-24T08:07:12;0.88;;;0.80;;
13321;SDS011;6730;46.248;6.930;2023-04-24T08:09:38;1.08;;;0.80;;
13321;SDS011;6730;46.248;6.930;2023-04-24T08:12:03;0.90;;;0.80;;
13321;SDS011;6730;46.248;6.930;2023-04-24T08:14:29;0.77;;;0.50;;
13321;SDS011;6730;46.248;6.930;2023-04-24T08:16:55;0.50;;;0.50;;
13321;SDS011;6730;46.248;6.930;2023-04-24T08:19:21;0.50;;;0.50;;
13321;SDS011;6730;46.248;6.930;2023-04-24T08:21:47;2.90;;;0.55;;
13321;SDS011;6730;46.248;6.930;2023-04-24T08:24:12;0.65;;;0.43;;
13321;SDS011;6730;46.248;6.930;2023-04-24T08:26:38;0.30;;;0.30;;
13321;SDS011;6730;46.248;6.930;2023-04-24T08:29:04;0.20;;;0.20;;
13321;SDS011;6730;46.248;6.930;2023-04-24T08:31:31;0.30;;;0.30;;
13321;SDS011;6730;46.248;6.930;2023-04-24T08:33:57;4.30;;;3.90;;
13321;SDS011;6730;46.248;6.930;2023-04-24T08:36:23;2.30;;;2.10;;
13321;SDS011;6730;46.248;6.930;2023-04-24T08:38:49;7.53;;;2.38;;
13321;SDS011;6730;46.248;6.930;2023-04-24T08:41:15;5.82;;;4.90;;
13321;SDS011;6730;46.248;6.930;2023-04-24T08:43:42;4.25;;;2.50;;
13321;SDS011;6730;46.248;6.930;2023-04-24T08:46:08;0.85;;;0.73;;
13321;SDS011;6730;46.248;6.930;2023-04-24T08:48:35;1.10;;;0.95;;
13321;SDS011;6730;46.248;6.930;2023-04-24T08:51:01;1.52;;;1.23;;
13321;SDS011;6730;46.248;6.930;2023-04-24T08:53:31;1.40;;;0.95;;
13321;SDS011;6730;46.248;6.930;2023-04-24T08:55:57;1.20;;;0.90;;
13321;SDS011;6730;46.248;6.930;2023-04-24T08:58:27;0.60;;;0.60;;
13321;SDS011;6730;46.248;6.930;2023-04-24T09:00:56;0.82;;;0.82;;
13321;SDS011;6730;46.248;6.930;2023-04-24T09:03:23;0.63;;;0.63;;
13321;SDS011;6730;46.248;6.930;2023-04-24T09:05:50;0.60;;;0.60;;
13321;SDS011;6730;46.248;6.930;2023-04-24T09:08:18;1.65;;;0.75;;
13321;SDS011;6730;46.248;6.930;2023-04-24T09:10:44;0.90;;;0.90;;
13321;SDS011;6730;46.248;6.930;2023-04-24T09:13:11;2.70;;;1.42;;
13321;SDS011;6730;46.248;6.930;2023-04-24T09:15:38;1.35;;;1.20;;
13321;SDS011;6730;46.248;6.930;2023-04-24T09:18:05;1.30;;;1.00;;
13321;SDS011;6730;46.248;6.930;2023-04-24T09:20:32;1.63;;;1.15;;
13321;SDS011;6730;46.248;6.930;2023-04-24T09:22:58;1.25;;;1.15;;
13321;SDS011;6730;46.248;6.930;2023-04-24T09:25:33;1.42;;;1.33;;
13321;SDS011;6730;46.248;6.930;2023-04-24T09:28:04;2.80;;;1.30;;
13321;SDS011;6730;46.248;6.930;2023-04-24T09:30:31;3.97;;;1.50;;
13321;SDS011;6730;46.248;6.930;2023-04-24T09:33:10;3.60;;;1.50;;
13321;SDS011;6730;46.248;6.930;2023-04-24T09:35:40;1.75;;;1.45;;
13321;SDS011;6730;46.248;6.930;2023-04-24T09:38:15;1.40;;;1.30;;
13321;SDS011;6730;46.248;6.930;2023-04-24T09:40:41;2.90;;;1.65;;
13321;SDS011;6730;46.248;6.930;2023-04-24T09:43:10;3.58;;;1.80;;
13321;SDS011;6730;46.248;6.930;2023-04-24T09:45:39;1.92;;;1.52;;
13321;SDS011;6730;46.248;6.930;2023-04-24T09:48:05;1.52;;;1.27;;
13321;SDS011;6730;46.248;6.930;2023-04-24T09:50:35;2.80;;;1.75;;
13321;SDS011;6730;46.248;6.930;2023-04-24T09:53:04;2.28;;;1.70;;
13321;SDS011;6730;46.248;6.930;2023-04-24T09:55:33;1.75;;;1.35;;
13321;SDS011;6730;46.248;6.930;2023-04-24T09:58:05;2.00;;;1.77;;
13321;SDS011;6730;46.248;6.930;2023-04-24T10:00:33;2.20;;;1.77;;
13321;SDS011;6730;46.248;6.930;2023-04-24T10:03:02;2.38;;;1.42;;
13321;SDS011;6730;46.248;6.930;2023-04-24T10:05:32;2.97;;;1.63;;
13321;SDS011;6730;46.248;6.930;2023-04-24T10:08:06;1.73;;;1.52;;
13321;SDS011;6730;46.248;6.930;2023-04-24T10:10:35;2.22;;;1.70;;
13321;SDS011;6730;46.248;6.930;2023-04-24T10:13:04;3.38;;;1.70;;
13321;SDS011;6730;46.248;6.930;2023-04-24T10:15:30;2.90;;;2.45;;
13321;SDS011;6730;46.248;6.930;2023-04-24T10:17:55;2.08;;;1.85;;
13321;SDS011;6730;46.248;6.930;2023-04-24T10:20:27;2.75;;;1.52;;
13321;SDS011;6730;46.248;6.930;2023-04-24T10:22:58;2.28;;;1.80;;
13321;SDS011;6730;46.248;6.930;2023-04-24T10:25:25;2.05;;;1.80;;
13321;SDS011;6730;46.248;6.930;2023-04-24T10:27:54;2.00;;;1.80;;
13321;SDS011;6730;46.248;6.930;2023-04-24T10:30:24;3.35;;;1.85;;
13321;SDS011;6730;46.248;6.930;2023-04-24T10:33:04;2.10;;;1.52;;
13321;SDS011;6730;46.248;6.930;2023-04-24T10:35:33;2.40;;;1.50;;
13321;SDS011;6730;46.248;6.930;2023-04-24T10:40:31;3.20;;;1.92;;
13321;SDS011;6730;46.248;6.930;2023-04-24T10:42:58;2.15;;;1.23;;
13321;SDS011;6730;46.248;6.930;2023-04-24T10:45:24;1.80;;;1.60;;
13321;SDS011;6730;46.248;6.930;2023-04-24T10:47:57;2.65;;;1.63;;
13321;SDS011;6730;46.248;6.930;2023-04-24T10:51:13;2.92;;;1.50;;
13321;SDS011;6730;46.248;6.930;2023-04-24T10:53:21;3.78;;;1.70;;
13321;SDS011;6730;46.248;6.930;2023-04-24T10:55:51;3.55;;;1.63;;
13321;SDS011;6730;46.248;6.930;2023-04-24T10:58:35;3.28;;;1.58;;
13321;SDS011;6730;46.248;6.930;2023-04-24T11:01:22;3.92;;;1.63;;
13321;SDS011;6730;46.248;6.930;2023-04-24T11:03:54;3.22;;;1.58;;
13321;SDS011;6730;46.248;6.930;2023-04-24T11:09:05;1.45;;;1.35;;
13321;SDS011;6730;46.248;6.930;2023-04-24T11:11:37;1.50;;;1.40;;
13321;SDS011;6730;46.248;6.930;2023-04-24T11:14:09;3.13;;;2.53;;
13321;SDS011;6730;46.248;6.930;2023-04-24T11:29:38;2.17;;;1.70;;
13321;SDS011;6730;46.248;6.930;2023-04-24T11:32:18;3.40;;;1.85;;
13321;SDS011;6730;46.248;6.930;2023-04-24T11:34:54;1.73;;;1.63;;
13321;SDS011;6730;46.248;6.930;2023-04-24T11:37:24;1.95;;;1.40;;
13321;SDS011;6730;46.248;6.930;2023-04-24T11:39:55;2.97;;;1.70;;
13321;SDS011;6730;46.248;6.930;2023-04-24T11:42:23;2.63;;;1.50;;
13321;SDS011;6730;46.248;6.930;2023-04-24T11:44:51;2.30;;;1.30;;
13321;SDS011;6730;46.248;6.930;2023-04-24T11:47:18;1.67;;;1.27;;
13321;SDS011;6730;46.248;6.930;2023-04-24T11:49:43;1.38;;;1.27;;
13321;SDS011;6730;46.248;6.930;2023-04-24T11:52:09;3.75;;;1.95;;
13321;SDS011;6730;46.248;6.930;2023-04-24T11:54:35;2.50;;;1.45;;
13321;SDS011;6730;46.248;6.930;2023-04-24T11:57:11;1.95;;;1.65;;
13321;SDS011;6730;46.248;6.930;2023-04-24T11:59:37;1.40;;;1.30;;
13321;SDS011;6730;46.248;6.930;2023-04-24T12:02:04;3.03;;;1.30;;
13321;SDS011;6730;46.248;6.930;2023-04-24T12:04:40;5.68;;;1.60;;
13321;SDS011;6730;46.248;6.930;2023-04-24T12:07:06;1.67;;;1.50;;
13321;SDS011;6730;46.248;6.930;2023-04-24T12:09:42;6.03;;;2.50;;
13321;SDS011;6730;46.248;6.930;2023-04-24T12:12:08;3.30;;;1.48;;
13321;SDS011;6730;46.248;6.930;2023-04-24T12:17:13;4.28;;;1.50;;
13321;SDS011;6730;46.248;6.930;2023-04-24T12:19:44;1.50;;;1.30;;
13321;SDS011;6730;46.248;6.930;2023-04-24T12:22:11;2.28;;;1.33;;
13321;SDS011;6730;46.248;6.930;2023-04-24T12:24:54;1.92;;;1.42;;
13321;SDS011;6730;46.248;6.930;2023-04-24T12:27:21;4.35;;;1.55;;
13321;SDS011;6730;46.248;6.930;2023-04-24T12:29:57;2.97;;;1.65;;
13321;SDS011;6730;46.248;6.930;2023-04-24T12:32:24;3.08;;;1.38;;
13321;SDS011;6730;46.248;6.930;2023-04-24T12:34:50;1.55;;;1.45;;
13321;SDS011;6730;46.248;6.930;2023-04-24T12:37:17;1.60;;;1.50;;
13321;SDS011;6730;46.248;6.930;2023-04-24T12:42:32;2.00;;;1.70;;
13321;SDS011;6730;46.248;6.930;2023-04-24T12:44:58;2.65;;;1.70;;
13321;SDS011;6730;46.248;6.930;2023-04-24T12:47:29;2.80;;;2.10;;
13321;SDS011;6730;46.248;6.930;2023-04-24T12:49:55;2.47;;;1.30;;
13321;SDS011;6730;46.248;6.930;2023-04-24T12:52:24;2.85;;;1.30;;
13321;SDS011;6730;46.248;6.930;2023-04-24T12:54:54;2.67;;;1.92;;
13321;SDS011;6730;46.248;6.930;2023-04-24T12:57:22;2.20;;;1.40;;
13321;SDS011;6730;46.248;6.930;2023-04-24T12:59:48;1.70;;;1.58;;
13321;SDS011;6730;46.248;6.930;2023-04-24T13:02:14;2.10;;;1.10;;
13321;SDS011;6730;46.248;6.930;2023-04-24T13:04:43;1.42;;;1.33;;
13321;SDS011;6730;46.248;6.930;2023-04-24T13:07:10;1.83;;;1.35;;
13321;SDS011;6730;46.248;6.930;2023-04-24T13:09:36;2.13;;;1.35;;
13321;SDS011;6730;46.248;6.930;2023-04-24T13:12:01;3.33;;;1.45;;
13321;SDS011;6730;46.248;6.930;2023-04-24T13:14:27;2.40;;;1.30;;
13321;SDS011;6730;46.248;6.930;2023-04-24T13:16:53;1.40;;;1.30;;
13321;SDS011;6730;46.248;6.930;2023-04-24T13:19:18;3.33;;;1.67;;
13321;SDS011;6730;46.248;6.930;2023-04-24T13:21:44;1.83;;;1.35;;
13321;SDS011;6730;46.248;6.930;2023-04-24T13:24:10;1.40;;;1.30;;
13321;SDS011;6730;46.248;6.930;2023-04-24T13:26:36;4.85;;;1.67;;
13321;SDS011;6730;46.248;6.930;2023-04-24T13:29:01;3.08;;;1.80;;
13321;SDS011;6730;46.248;6.930;2023-04-24T13:31:28;5.13;;;1.52;;
13321;SDS011;6730;46.248;6.930;2023-04-24T13:33:54;5.55;;;1.60;;
13321;SDS011;6730;46.248;6.930;2023-04-24T13:36:20;4.88;;;1.67;;
13321;SDS011;6730;46.248;6.930;2023-04-24T13:38:45;3.13;;;1.48;;
13321;SDS011;6730;46.248;6.930;2023-04-24T13:41:11;1.95;;;1.45;;
13321;SDS011;6730;46.248;6.930;2023-04-24T13:43:37;5.78;;;1.83;;
13321;SDS011;6730;46.248;6.930;2023-04-24T13:46:02;5.85;;;1.58;;
13321;SDS011;6730;46.248;6.930;2023-04-24T13:48:29;3.30;;;1.40;;
13321;SDS011;6730;46.248;6.930;2023-04-24T13:50:55;8.98;;;2.47;;
13321;SDS011;6730;46.248;6.930;2023-04-24T13:53:20;2.17;;;1.30;;
13321;SDS011;6730;46.248;6.930;2023-04-24T13:55:46;6.28;;;1.40;;
13321;SDS011;6730;46.248;6.930;2023-04-24T13:58:13;5.10;;;1.52;;
13321;SDS011;6730;46.248;6.930;2023-04-24T14:00:39;1.70;;;1.35;;
13321;SDS011;6730;46.248;6.930;2023-04-24T14:03:05;1.55;;;1.33;;
13321;SDS011;6730;46.248;6.930;2023-04-24T14:05:31;1.85;;;1.35;;
13321;SDS011;6730;46.248;6.930;2023-04-24T14:07:57;1.40;;;1.23;;
13321;SDS011;6730;46.248;6.930;2023-04-24T14:10:23;2.25;;;1.20;;
13321;SDS011;6730;46.248;6.930;2023-04-24T14:12:48;1.55;;;1.38;;
13321;SDS011;6730;46.248;6.930;2023-04-24T14:15:15;2.25;;;1.30;;
13321;SDS011;6730;46.248;6.930;2023-04-24T14:17:41;3.10;;;1.00;;
13321;SDS011;6730;46.248;6.930;2023-04-24T14:20:08;2.67;;;1.05;;
13321;SDS011;6730;46.248;6.930;2023-04-24T14:22:34;1.90;;;1.50;;
13321;SDS011;6730;46.248;6.930;2023-04-24T14:25:00;2.28;;;1.27;;
13321;SDS011;6730;46.248;6.930;2023-04-24T14:27:25;2.75;;;1.30;;
13321;SDS011;6730;46.248;6.930;2023-04-24T14:29:52;2.00;;;1.17;;
13321;SDS011;6730;46.248;6.930;2023-04-24T14:32:18;1.20;;;1.10;;
13321;SDS011;6730;46.248;6.930;2023-04-24T14:34:43;2.03;;;1.30;;
13321;SDS011;6730;46.248;6.930;2023-04-24T14:37:12;1.60;;;1.23;;
13321;SDS011;6730;46.248;6.930;2023-04-24T14:39:38;2.67;;;1.20;;
13321;SDS011;6730;46.248;6.930;2023-04-24T14:42:03;3.85;;;1.70;;
13321;SDS011;6730;46.248;6.930;2023-04-24T14:44:29;2.80;;;1.23;;
13321;SDS011;6730;46.248;6.930;2023-04-24T14:46:55;2.95;;;1.40;;
13321;SDS011;6730;46.248;6.930;2023-04-24T14:49:20;2.33;;;1.40;;
13321;SDS011;6730;46.248;6.930;2023-04-24T14:51:46;1.70;;;1.60;;
13321;SDS011;6730;46.248;6.930;2023-04-24T14:54:12;1.75;;;1.35;;
13321;SDS011;6730;46.248;6.930;2023-04-24T14:56:38;3.78;;;1.27;;
13321;SDS011;6730;46.248;6.930;2023-04-24T14:59:06;2.90;;;1.15;;
13321;SDS011;6730;46.248;6.930;2023-04-24T15:01:32;1.30;;;1.20;;
13321;SDS011;6730;46.248;6.930;2023-04-24T15:03:57;1.10;;;1.00;;
13321;SDS011;6730;46.248;6.930;2023-04-24T15:06:23;2.10;;;1.27;;
13321;SDS011;6730;46.248;6.930;2023-04-24T15:08:52;2.88;;;1.52;;
13321;SDS011;6730;46.248;6.930;2023-04-24T15:11:18;2.00;;;1.50;;
13321;SDS011;6730;46.248;6.930;2023-04-24T15:13:45;3.72;;;1.30;;
13321;SDS011;6730;46.248;6.930;2023-04-24T15:16:11;3.63;;;1.38;;
13321;SDS011;6730;46.248;6.930;2023-04-24T15:18:36;1.50;;;1.10;;
13321;SDS011;6730;46.248;6.930;2023-04-24T15:21:02;1.90;;;1.40;;
13321;SDS011;6730;46.248;6.930;2023-04-24T15:23:28;2.42;;;1.58;;